Time;durP1;ratioP1;P1;durP2;ratioP2;P2;SDS_P1;SDS_P2;PMS_P1;PMS_P2;Temp;Humidity;BMP_temperature;BMP_pressure;BME280_temperature;BME280_humidity;BME280_pressure;Samples;Min_cycle;Max_cycle;Signal;HPM_P1;HPM_P2
2023/02/14 00:01:43;;;;;;;8.17;6.17;;;8.00;99.90;;;;;;5040831;28;20433;-78
2023/02/14 00:04:08;;;;;;;6.87;5.40;;;8.00;99.90;;;;;;5032269;28;20409;-78
2023/02/14 00:06:37;;;;;;;5.70;5.10;;;8.00;99.90;;;;;;5028228;28;20429;-77
2023/02/14 00:09:04;;;;;;;7.40;5.50;;;7.90;99.90;;;;;;5036717;28;20167;-78
2023/02/14 00:11:30;;;;;;;6.73;5.80;;;7.90;99.90;;;;;;5034287;28;20620;-79
2023/02/14 00:16:41;;;;;;;6.33;5.17;;;7.80;99.90;;;;;;5029102;28;20433;-79
2023/02/14 00:19:10;;;;;;;7.70;6.30;;;7.80;99.90;;;;;;5030030;28;20409;-78
2023/02/14 00:21:37;;;;;;;8.27;5.90;;;7.80;99.90;;;;;;5029331;28;20472;-78
2023/02/14 00:24:05;;;;;;;8.47;6.10;;;7.90;99.90;;;;;;5010742;28;20421;-78
2023/02/14 00:26:30;;;;;;;6.93;5.57;;;7.80;99.90;;;;;;5011773;28;20414;-78
2023/02/14 00:28:56;;;;;;;9.20;6.33;;;7.80;99.90;;;;;;5035703;28;20498;-79
2023/02/14 00:31:22;;;;;;;8.17;6.33;;;7.80;99.90;;;;;;5039938;28;20217;-80
2023/02/14 00:33:48;;;;;;;7.00;5.87;;;7.80;99.90;;;;;;5035393;28;20194;-79
2023/02/14 00:36:14;;;;;;;7.00;6.07;;;7.80;99.90;;;;;;5033153;28;20508;-79
2023/02/14 00:38:39;;;;;;;8.17;5.87;;;7.80;99.90;;;;;;5042645;28;20231;-78
2023/02/14 00:41:05;;;;;;;9.27;5.90;;;7.70;99.90;;;;;;5052571;28;20428;-79
2023/02/14 00:43:31;;;;;;;7.50;6.10;;;8.00;99.90;;;;;;5059454;28;20205;-79
2023/02/14 00:45:56;;;;;;;9.43;6.80;;;7.50;99.90;;;;;;5055095;28;20651;-78
2023/02/14 00:48:22;;;;;;;7.73;6.53;;;7.80;99.90;;;;;;5053663;28;20677;-80
2023/02/14 00:50:48;;;;;;;7.50;6.67;;;7.90;99.90;;;;;;5054236;28;20538;-80
2023/02/14 00:53:13;;;;;;;6.73;5.43;;;7.90;99.90;;;;;;5054090;28;20690;-77
2023/02/14 00:55:39;;;;;;;7.80;6.17;;;7.90;99.90;;;;;;5054716;28;20217;-80
2023/02/14 00:58:05;;;;;;;6.70;5.83;;;7.50;99.90;;;;;;5053845;28;20396;-79
2023/02/14 01:00:30;;;;;;;7.40;6.00;;;7.70;99.90;;;;;;5053979;28;20174;-80
2023/02/14 01:02:56;;;;;;;6.97;6.27;;;7.70;99.90;;;;;;5053332;28;20233;-79
2023/02/14 01:05:22;;;;;;;8.37;6.70;;;7.80;99.90;;;;;;5052594;28;20588;-79
2023/02/14 01:07:47;;;;;;;8.50;6.90;;;7.70;99.90;;;;;;5054394;28;20446;-78
2023/02/14 01:10:13;;;;;;;7.00;6.00;;;7.80;99.90;;;;;;5054034;28;20200;-80
2023/02/14 01:12:39;;;;;;;7.10;5.83;;;7.80;99.90;;;;;;5036159;28;20281;-79
2023/02/14 01:15:05;;;;;;;7.40;5.77;;;7.70;99.90;;;;;;5053647;28;20205;-78
2023/02/14 01:17:30;;;;;;;7.07;6.20;;;7.50;99.90;;;;;;5052744;28;20189;-78
2023/02/14 01:19:56;;;;;;;7.40;6.17;;;7.50;99.90;;;;;;5053470;28;20421;-79
2023/02/14 01:22:21;;;;;;;9.93;6.07;;;7.40;99.90;;;;;;5053818;28;20211;-80
2023/02/14 01:24:47;;;;;;;6.97;6.20;;;7.60;99.90;;;;;;5052094;28;20178;-79
2023/02/14 01:27:13;;;;;;;7.70;6.53;;;7.40;99.90;;;;;;5052799;28;20178;-79
2023/02/14 01:29:38;;;;;;;6.60;5.73;;;7.50;99.90;;;;;;5055256;28;20177;-78
2023/02/14 01:32:04;;;;;;;6.07;5.47;;;7.30;99.90;;;;;;5057480;28;20268;-80
2023/02/14 01:34:30;;;;;;;8.00;6.07;;;7.40;99.90;;;;;;5057245;28;20587;-79
2023/02/14 01:36:55;;;;;;;7.07;5.90;;;7.60;99.90;;;;;;5058670;28;20592;-78
2023/02/14 01:39:21;;;;;;;11.13;6.67;;;7.40;99.90;;;;;;5043007;28;20170;-77
2023/02/14 01:41:47;;;;;;;8.20;6.53;;;7.60;99.90;;;;;;5038261;28;20195;-79
2023/02/14 01:44:13;;;;;;;7.87;5.93;;;7.50;99.90;;;;;;5037679;28;20179;-79
2023/02/14 01:46:40;;;;;;;10.20;6.17;;;7.60;99.90;;;;;;5036337;28;20409;-79
2023/02/14 01:49:12;;;;;;;8.93;6.40;;;7.60;99.90;;;;;;5036500;28;20258;-79
2023/02/14 01:52:04;;;;;;;6.70;5.90;;;7.60;99.90;;;;;;5036818;28;20460;-78
2023/02/14 01:54:32;;;;;;;8.77;6.60;;;7.60;99.90;;;;;;5036497;28;20453;-79
2023/02/14 01:57:01;;;;;;;6.90;6.17;;;7.60;99.90;;;;;;5037667;28;20968;-79
2023/02/14 01:59:32;;;;;;;7.23;6.50;;;7.70;99.90;;;;;;5038026;28;20471;-79
2023/02/14 02:01:58;;;;;;;6.90;5.90;;;7.70;99.90;;;;;;5036776;28;20475;-78
2023/02/14 02:04:31;;;;;;;8.50;6.33;;;7.80;99.90;;;;;;5035832;28;20425;-79
2023/02/14 02:07:01;;;;;;;8.00;5.83;;;7.80;99.90;;;;;;5037004;28;20479;-79
2023/02/14 02:09:33;;;;;;;9.20;6.23;;;7.80;99.90;;;;;;5036584;28;20425;-78
2023/02/14 02:11:59;;;;;;;6.83;5.73;;;7.80;99.90;;;;;;5036552;28;20464;-78
2023/02/14 02:14:25;;;;;;;9.30;6.27;;;7.90;99.90;;;;;;5020281;28;20445;-80
2023/02/14 02:17:13;;;;;;;6.90;5.50;;;7.90;99.90;;;;;;5036328;28;20944;-79
2023/02/14 02:20:03;;;;;;;8.80;5.90;;;7.90;99.90;;;;;;5036860;28;20516;-80
2023/02/14 02:23:21;;;;;;;6.80;6.07;;;7.80;99.90;;;;;;5037626;28;20960;-77
2023/02/14 02:25:56;;;;;;;7.13;6.03;;;7.70;99.90;;;;;;5033643;28;20417;-79
2023/02/14 02:28:58;;;;;;;6.90;6.17;;;7.70;99.90;;;;;;5036666;28;20413;-79
2023/02/14 02:31:44;;;;;;;8.20;5.83;;;7.60;99.90;;;;;;5037631;28;20439;-79
2023/02/14 02:34:28;;;;;;;9.47;6.47;;;7.70;99.90;;;;;;5036963;28;20902;-78
2023/02/14 02:36:56;;;;;;;6.70;5.83;;;7.60;99.90;;;;;;5037036;28;20449;-79
2023/02/14 02:39:33;;;;;;;7.33;6.30;;;7.60;99.90;;;;;;5052231;28;20448;-80
2023/02/14 02:42:46;;;;;;;8.43;6.77;;;7.70;99.90;;;;;;5055554;28;20511;-80
2023/02/14 02:45:12;;;;;;;7.03;6.33;;;7.80;99.90;;;;;;5050020;28;20428;-80
2023/02/14 02:47:44;;;;;;;8.23;6.43;;;7.80;99.90;;;;;;5056060;28;20423;-80
2023/02/14 02:53:34;;;;;;;7.67;6.20;;;7.70;99.90;;;;;;5056738;28;20420;-80
2023/02/14 02:58:59;;;;;;;6.87;5.83;;;7.60;99.90;;;;;;5058117;28;20404;-79
2023/02/14 03:01:38;;;;;;;8.93;7.00;;;7.60;99.90;;;;;;5056077;28;20959;-79
2023/02/14 03:06:55;;;;;;;8.60;5.50;;;7.60;99.90;;;;;;5051945;28;20499;-78
2023/02/14 03:09:26;;;;;;;8.03;6.37;;;7.60;99.90;;;;;;5054043;28;20415;-79
2023/02/14 03:12:25;;;;;;;8.53;7.13;;;7.60;99.90;;;;;;5054410;28;20596;-78
2023/02/14 03:14:58;;;;;;;8.97;7.07;;;7.60;99.90;;;;;;5049421;28;20658;-77
2023/02/14 03:17:35;;;;;;;9.97;6.93;;;7.80;99.90;;;;;;5050697;28;20408;-78
2023/02/14 03:20:34;;;;;;;8.50;7.23;;;7.80;99.90;;;;;;5050890;28;20416;-78
2023/02/14 03:23:13;;;;;;;8.37;6.63;;;7.80;99.90;;;;;;5044690;28;20893;-78
2023/02/14 03:26:01;;;;;;;8.47;6.33;;;7.70;99.90;;;;;;5050602;28;20917;-79
2023/02/14 03:28:42;;;;;;;8.07;6.20;;;7.60;99.90;;;;;;5050889;28;20409;-78
2023/02/14 03:31:40;;;;;;;9.70;7.60;;;7.70;99.90;;;;;;5049051;28;20782;-79
2023/02/14 03:34:24;;;;;;;10.03;7.83;;;7.70;99.90;;;;;;5032755;28;20459;-79
2023/02/14 03:36:57;;;;;;;10.30;7.20;;;7.70;99.90;;;;;;5050560;28;20491;-78
2023/02/14 03:39:34;;;;;;;11.30;8.00;;;7.60;99.90;;;;;;5035360;28;20409;-78
2023/02/14 03:42:10;;;;;;;9.20;7.23;;;7.70;99.90;;;;;;5030256;28;20425;-79
2023/02/14 03:44:37;;;;;;;10.40;8.10;;;7.60;99.90;;;;;;5029730;28;20417;-79
2023/02/14 03:47:16;;;;;;;9.10;7.47;;;7.50;99.90;;;;;;5029409;28;20413;-78
2023/02/14 03:49:50;;;;;;;11.73;8.47;;;7.40;99.90;;;;;;5030755;28;20421;-78
2023/02/14 03:52:18;;;;;;;9.30;8.10;;;7.60;99.90;;;;;;5028459;28;20464;-79
2023/02/14 03:54:47;;;;;;;9.90;7.50;;;7.50;99.90;;;;;;5030447;28;20449;-79
2023/02/14 03:57:19;;;;;;;9.23;7.67;;;7.70;99.90;;;;;;5028853;28;20443;-78
2023/02/14 03:59:46;;;;;;;11.97;8.97;;;7.50;99.90;;;;;;5011796;28;20417;-78
2023/02/14 04:02:17;;;;;;;10.80;8.93;;;7.60;99.90;;;;;;5030035;28;20433;-79
2023/02/14 04:04:46;;;;;;;11.40;7.60;;;7.60;99.90;;;;;;5028775;28;20409;-79
2023/02/14 04:07:18;;;;;;;11.13;8.20;;;7.70;99.90;;;;;;5028530;28;20460;-78
2023/02/14 04:09:45;;;;;;;13.40;8.20;;;7.60;99.90;;;;;;5028873;28;20832;-78
2023/02/14 04:12:11;;;;;;;12.30;8.70;;;7.60;99.90;;;;;;5028394;28;20509;-78
2023/02/14 04:14:37;;;;;;;12.13;8.97;;;7.50;99.90;;;;;;5028339;28;20464;-78
2023/02/14 04:19:48;;;;;;;12.47;9.60;;;7.50;99.90;;;;;;5029667;28;20181;-78
2023/02/14 04:22:14;;;;;;;10.57;8.73;;;7.70;99.90;;;;;;5029591;28;20870;-78
2023/02/14 04:24:40;;;;;;;12.63;9.90;;;7.30;99.90;;;;;;5028630;28;20445;-79
2023/02/14 04:27:08;;;;;;;12.53;9.73;;;7.50;99.90;;;;;;5028128;28;20178;-78
2023/02/14 04:29:46;;;;;;;14.00;9.20;;;7.40;99.90;;;;;;5029402;28;20228;-78
2023/02/14 04:32:16;;;;;;;16.40;9.60;;;7.50;99.90;;;;;;5028115;28;20445;-78
2023/02/14 04:34:42;;;;;;;12.80;10.30;;;7.30;99.90;;;;;;5028049;28;20503;-78
2023/02/14 04:37:08;;;;;;;14.00;10.70;;;7.50;99.90;;;;;;5027954;28;20409;-78
2023/02/14 04:39:35;;;;;;;14.80;10.37;;;7.50;99.90;;;;;;5064518;28;20441;-78
2023/02/14 04:42:01;;;;;;;15.90;11.57;;;7.30;99.90;;;;;;5048067;28;20444;-78
2023/02/14 04:44:27;;;;;;;14.27;10.60;;;7.20;99.90;;;;;;5049200;28;20901;-79
2023/02/14 04:46:53;;;;;;;14.93;11.10;;;7.30;99.90;;;;;;5049139;28;20448;-79
2023/02/14 04:49:18;;;;;;;14.97;10.63;;;7.50;99.90;;;;;;5049287;28;20538;-78
2023/02/14 04:51:44;;;;;;;15.87;11.83;;;7.20;99.90;;;;;;5049407;28;20218;-78
2023/02/14 04:54:10;;;;;;;15.20;10.67;;;7.40;99.90;;;;;;5049243;28;20418;-78
2023/02/14 04:56:36;;;;;;;17.80;12.27;;;7.20;99.90;;;;;;5047697;28;20237;-78
2023/02/14 04:59:02;;;;;;;15.93;12.20;;;7.30;99.90;;;;;;5047750;28;20443;-78
2023/02/14 05:01:27;;;;;;;16.87;13.00;;;7.20;99.90;;;;;;5046784;28;20236;-78
2023/02/14 05:03:53;;;;;;;17.20;12.00;;;7.30;99.90;;;;;;5048694;28;20181;-78
2023/02/14 05:06:19;;;;;;;19.90;12.70;;;7.20;99.90;;;;;;5049046;28;20224;-78
2023/02/14 05:08:44;;;;;;;17.87;13.67;;;7.10;99.90;;;;;;5048953;28;20211;-78
2023/02/14 05:11:10;;;;;;;20.40;12.97;;;7.10;99.90;;;;;;5030758;28;20658;-78
2023/02/14 05:13:36;;;;;;;20.23;12.80;;;7.10;99.90;;;;;;5049024;28;20207;-78
2023/02/14 05:16:02;;;;;;;18.17;12.67;;;7.20;99.90;;;;;;5049286;28;20550;-78
2023/02/14 05:18:28;;;;;;;19.37;13.83;;;7.20;99.90;;;;;;5049060;28;20178;-78
2023/02/14 05:20:54;;;;;;;20.47;14.27;;;7.30;99.90;;;;;;5048789;28;20422;-78
2023/02/14 05:23:20;;;;;;;20.07;13.10;;;7.20;99.90;;;;;;5046230;28;20193;-78
2023/02/14 05:25:50;;;;;;;19.53;13.27;;;7.40;99.90;;;;;;5047620;28;20500;-78
2023/02/14 05:28:18;;;;;;;24.70;15.97;;;7.20;99.90;;;;;;5030539;28;20831;-78
2023/02/14 05:30:43;;;;;;;17.53;13.10;;;7.30;99.90;;;;;;5048753;28;20412;-78
2023/02/14 05:33:09;;;;;;;22.90;15.80;;;7.00;99.90;;;;;;5048583;28;20446;-78
2023/02/14 05:35:35;;;;;;;19.83;13.40;;;7.10;99.90;;;;;;5047723;28;20244;-79
2023/02/14 05:38:01;;;;;;;17.80;13.90;;;7.10;99.90;;;;;;5044597;28;20186;-79
2023/02/14 05:40:27;;;;;;;23.10;15.53;;;7.20;99.90;;;;;;5027669;28;20483;-78
2023/02/14 05:42:54;;;;;;;21.60;15.30;;;7.10;99.90;;;;;;5060641;28;20199;-78
2023/02/14 05:45:21;;;;;;;22.43;15.43;;;7.00;99.90;;;;;;5044155;28;20917;-78
2023/02/14 05:47:47;;;;;;;24.47;16.87;;;7.10;99.90;;;;;;5027233;28;20475;-78
2023/02/14 05:50:13;;;;;;;25.73;16.17;;;7.20;99.90;;;;;;5028717;28;20464;-78
2023/02/14 05:52:39;;;;;;;22.47;15.40;;;7.30;99.90;;;;;;5044050;28;20437;-78
2023/02/14 05:55:06;;;;;;;21.67;15.40;;;7.10;99.90;;;;;;5028521;28;20535;-78
2023/02/14 05:57:32;;;;;;;26.03;16.50;;;7.30;99.90;;;;;;5028500;28;20171;-78
2023/02/14 05:59:57;;;;;;;24.07;16.63;;;7.10;99.90;;;;;;5028498;28;20440;-78
2023/02/14 06:02:23;;;;;;;21.37;14.07;;;7.10;99.90;;;;;;5028456;28;20201;-78
2023/02/14 06:04:49;;;;;;;25.93;16.33;;;7.20;99.90;;;;;;5027138;28;20182;-78
2023/02/14 06:07:15;;;;;;;22.43;15.50;;;6.90;99.90;;;;;;5010692;28;20421;-78
2023/02/14 06:09:41;;;;;;;25.23;16.20;;;7.00;99.90;;;;;;5028606;28;20413;-78
2023/02/14 06:12:06;;;;;;;27.43;17.10;;;6.90;99.90;;;;;;5028560;28;20686;-78
2023/02/14 06:14:32;;;;;;;26.17;17.87;;;6.80;99.90;;;;;;5028429;28;20185;-78
2023/02/14 06:16:58;;;;;;;26.07;18.60;;;6.80;99.90;;;;;;5030714;28;20540;-78
2023/02/14 06:19:23;;;;;;;22.23;17.13;;;6.80;99.90;;;;;;5032063;28;20171;-78
2023/02/14 06:21:49;;;;;;;25.43;17.30;;;6.70;99.90;;;;;;5030625;28;20206;-78
2023/02/14 06:24:15;;;;;;;26.50;17.33;;;6.70;99.90;;;;;;5029389;28;20182;-79
2023/02/14 06:26:40;;;;;;;26.90;17.97;;;6.70;99.90;;;;;;5030587;28;20178;-78
2023/02/14 06:29:06;;;;;;;29.00;17.83;;;6.60;99.90;;;;;;5030411;28;20272;-78
2023/02/14 06:31:32;;;;;;;24.80;16.77;;;6.50;99.90;;;;;;5031776;28;20205;-78
2023/02/14 06:33:57;;;;;;;27.60;18.63;;;6.60;99.90;;;;;;5030344;28;20182;-78
2023/02/14 06:36:23;;;;;;;26.40;17.50;;;6.70;99.90;;;;;;5031746;28;20210;-78
2023/02/14 06:38:49;;;;;;;25.60;17.27;;;6.40;99.90;;;;;;5050181;28;20191;-78
2023/02/14 06:41:16;;;;;;;25.60;17.20;;;6.40;99.90;;;;;;5049972;28;20409;-78
2023/02/14 06:43:43;;;;;;;22.37;16.20;;;6.30;99.90;;;;;;5050002;28;20608;-79
2023/02/14 06:46:10;;;;;;;24.93;17.40;;;6.50;99.90;;;;;;5051597;28;20420;-78
2023/02/14 06:48:35;;;;;;;23.77;16.50;;;6.30;99.90;;;;;;5051214;28;20427;-78
2023/02/14 06:51:02;;;;;;;27.60;18.07;;;6.60;99.90;;;;;;5051124;28;20416;-79
2023/02/14 06:53:28;;;;;;;25.63;17.37;;;6.70;99.90;;;;;;5050921;28;20546;-78
2023/02/14 06:55:53;;;;;;;29.00;17.30;;;6.50;99.90;;;;;;5051055;28;20452;-78
2023/02/14 06:58:19;;;;;;;25.63;17.33;;;6.50;99.90;;;;;;5033019;28;20424;-78
2023/02/14 07:00:46;;;;;;;26.40;16.63;;;6.60;99.90;;;;;;5051214;28;20170;-78
2023/02/14 07:03:12;;;;;;;26.20;18.10;;;6.60;99.90;;;;;;5050701;28;20247;-78
2023/02/14 07:05:38;;;;;;;23.47;16.23;;;6.70;99.90;;;;;;5051355;28;20829;-78
2023/02/14 07:08:06;;;;;;;23.57;15.50;;;6.70;99.90;;;;;;5051070;28;20415;-78
2023/02/14 07:10:32;;;;;;;24.33;16.13;;;6.70;99.90;;;;;;5050966;28;20423;-78
2023/02/14 07:12:59;;;;;;;22.23;15.70;;;6.50;99.90;;;;;;5050531;28;21144;-78
2023/02/14 07:15:24;;;;;;;25.27;16.20;;;6.60;99.90;;;;;;5049622;28;20497;-78
2023/02/14 07:17:50;;;;;;;20.63;15.00;;;6.40;99.90;;;;;;5050429;28;20875;-78
2023/02/14 07:20:17;;;;;;;23.40;15.07;;;6.40;99.90;;;;;;5050566;28;20178;-79
2023/02/14 07:22:42;;;;;;;25.43;16.80;;;6.40;99.90;;;;;;5049144;28;20248;-78
2023/02/14 07:25:09;;;;;;;21.03;14.43;;;6.50;99.90;;;;;;5049689;28;20989;-78
2023/02/14 07:27:34;;;;;;;22.17;14.10;;;6.50;99.90;;;;;;5032819;28;20181;-78
2023/02/14 07:30:00;;;;;;;20.60;15.23;;;6.40;99.90;;;;;;5032656;28;20426;-78
2023/02/14 07:32:26;;;;;;;20.57;13.93;;;6.30;99.90;;;;;;5050692;28;20202;-79
2023/02/14 07:34:52;;;;;;;21.73;13.90;;;6.20;99.90;;;;;;5048800;28;20287;-78
2023/02/14 07:37:17;;;;;;;20.33;13.03;;;6.20;99.90;;;;;;5050271;28;20556;-78
2023/02/14 07:39:44;;;;;;;18.37;13.17;;;6.40;99.90;;;;;;5032048;28;20178;-78
2023/02/14 07:42:10;;;;;;;19.10;13.00;;;6.40;99.90;;;;;;5030461;28;20251;-79
2023/02/14 07:44:39;;;;;;;19.40;14.27;;;6.70;99.90;;;;;;5030305;28;20472;-78
2023/02/14 07:47:09;;;;;;;19.97;12.50;;;6.80;99.90;;;;;;5030098;28;20464;-78
2023/02/14 07:49:35;;;;;;;19.70;12.97;;;7.00;99.90;;;;;;5030468;28;20413;-78
2023/02/14 07:52:02;;;;;;;19.90;13.23;;;7.20;99.90;;;;;;5062693;28;21197;-78
2023/02/14 07:54:27;;;;;;;18.03;12.10;;;7.30;99.90;;;;;;5030064;28;20421;-78
2023/02/14 07:56:53;;;;;;;19.07;11.50;;;7.50;99.90;;;;;;5030106;28;20478;-78
2023/02/14 07:59:19;;;;;;;17.83;11.60;;;7.70;99.90;;;;;;5012258;28;20182;-78
2023/02/14 08:01:45;;;;;;;17.30;11.40;;;7.60;99.90;;;;;;5030032;28;20194;-78
2023/02/14 08:04:12;;;;;;;17.70;11.10;;;8.10;99.90;;;;;;5029916;28;20189;-77
2023/02/14 08:06:39;;;;;;;16.27;11.27;;;8.00;99.90;;;;;;5030036;28;20273;-78
2023/02/14 08:09:05;;;;;;;13.60;10.30;;;8.10;99.90;;;;;;5061949;28;21015;-78
2023/02/14 08:14:22;;;;;;;15.23;9.67;;;8.30;99.90;;;;;;4998619;28;20425;-78
2023/02/14 08:16:48;;;;;;;16.67;11.23;;;8.50;99.90;;;;;;5029647;28;20868;-79
2023/02/14 08:19:13;;;;;;;13.97;9.90;;;8.70;99.90;;;;;;5029710;28;20175;-78
2023/02/14 08:21:39;;;;;;;13.20;9.97;;;8.90;99.90;;;;;;5029874;28;20194;-78
2023/02/14 08:24:05;;;;;;;13.83;9.53;;;9.10;99.90;;;;;;5029641;28;20571;-78
2023/02/14 08:26:31;;;;;;;11.20;8.90;;;9.40;99.90;;;;;;5028905;28;20175;-79
2023/02/14 08:28:57;;;;;;;12.10;8.93;;;9.70;99.90;;;;;;5028432;28;20182;-78
2023/02/14 08:31:28;;;;;;;12.50;9.27;;;9.80;99.90;;;;;;5030041;28;20445;-79
2023/02/14 08:33:54;;;;;;;13.63;9.60;;;10.10;99.90;;;;;;5011827;28;20264;-78
2023/02/14 08:36:20;;;;;;;12.97;9.47;;;10.40;99.90;;;;;;5030240;28;20544;-78
2023/02/14 08:38:49;;;;;;;13.77;9.50;;;10.50;99.90;;;;;;5039807;28;20427;-78
2023/02/14 08:41:16;;;;;;;14.97;9.67;;;10.70;99.90;;;;;;5049860;28;20170;-78
2023/02/14 08:43:43;;;;;;;13.13;9.87;;;10.70;99.90;;;;;;5048380;28;20426;-78
2023/02/14 08:46:11;;;;;;;13.63;10.20;;;10.80;99.90;;;;;;5049866;28;20444;-79
2023/02/14 08:48:37;;;;;;;13.30;9.27;;;10.90;99.90;;;;;;5049684;28;20424;-78
2023/02/14 08:51:05;;;;;;;13.50;10.10;;;11.00;99.90;;;;;;5049898;28;20424;-79
2023/02/14 08:53:31;;;;;;;12.77;9.53;;;11.20;99.90;;;;;;5048977;28;20416;-79
2023/02/14 08:56:01;;;;;;;13.17;9.07;;;11.40;99.90;;;;;;5032542;28;20518;-78
2023/02/14 08:58:27;;;;;;;11.30;8.93;;;11.70;99.90;;;;;;5050151;28;20205;-79
2023/02/14 09:00:54;;;;;;;12.43;9.30;;;11.90;99.90;;;;;;5050239;28;20905;-79
2023/02/14 09:03:20;;;;;;;10.07;8.70;;;12.00;99.90;;;;;;5050428;28;20194;-79
2023/02/14 09:05:46;;;;;;;13.37;8.93;;;12.10;99.90;;;;;;5050490;28;20424;-78
2023/02/14 09:08:11;;;;;;;15.57;9.93;;;12.30;99.90;;;;;;5050059;28;20412;-78
2023/02/14 09:10:37;;;;;;;14.87;10.80;;;12.40;99.90;;;;;;5047617;28;20236;-78
2023/02/14 09:13:03;;;;;;;10.90;9.10;;;12.40;99.90;;;;;;5052747;28;20213;-79
2023/02/14 09:15:29;;;;;;;14.60;9.40;;;12.60;99.90;;;;;;5059630;28;20216;-78
2023/02/14 09:17:55;;;;;;;11.80;9.03;;;12.70;99.90;;;;;;5057688;28;21099;-79
2023/02/14 09:20:20;;;;;;;12.93;9.90;;;12.90;99.90;;;;;;5058573;28;20421;-78
2023/02/14 09:22:46;;;;;;;12.53;9.80;;;13.00;99.90;;;;;;5058571;28;20193;-76
2023/02/14 09:25:12;;;;;;;11.50;9.03;;;13.00;99.90;;;;;;5057942;28;20439;-79
2023/02/14 09:27:38;;;;;;;10.87;9.27;;;13.20;99.90;;;;;;5057098;28;20209;-79
2023/02/14 09:30:06;;;;;;;13.03;9.93;;;13.20;99.90;;;;;;5057651;28;20440;-79
2023/02/14 09:32:32;;;;;;;14.47;9.53;;;13.20;99.90;;;;;;5057232;28;20448;-78
2023/02/14 09:37:42;;;;;;;10.30;8.37;;;13.40;99.90;;;;;;5056474;28;20615;-78
2023/02/14 09:40:11;;;;;;;12.37;9.50;;;13.50;99.90;;;;;;5039527;28;20427;-78
2023/02/14 09:42:47;;;;;;;12.70;9.83;;;13.60;99.90;;;;;;5038959;28;20198;-78
2023/02/14 09:45:18;;;;;;;12.17;10.00;;;13.70;99.90;;;;;;5037981;28;20905;-76
2023/02/14 09:47:54;;;;;;;13.63;9.37;;;13.80;99.90;;;;;;5038408;28;20440;-78
2023/02/14 09:50:39;;;;;;;11.23;8.57;;;13.90;99.90;;;;;;5039951;28;20416;-78
2023/02/14 09:53:13;;;;;;;13.17;9.20;;;14.10;99.90;;;;;;5040123;28;20448;-78
2023/02/14 09:55:50;;;;;;;10.67;8.73;;;14.20;99.90;;;;;;5040620;28;20559;-76
2023/02/14 09:58:22;;;;;;;11.07;9.33;;;14.30;99.90;;;;;;5041447;28;20443;-78
2023/02/14 10:00:59;;;;;;;10.17;7.77;;;14.40;99.70;;;;;;5041669;28;20421;-77
2023/02/14 10:03:46;;;;;;;12.90;9.67;;;14.50;99.90;;;;;;5041670;28;20451;-78
2023/02/14 10:06:50;;;;;;;11.50;9.03;;;14.50;98.40;;;;;;5040774;28;20420;-77
2023/02/14 10:09:16;;;;;;;11.27;8.60;;;14.50;98.50;;;;;;5019316;28;20439;-77
2023/02/14 10:11:46;;;;;;;9.97;7.80;;;14.60;98.10;;;;;;5037342;28;20941;-78
2023/02/14 10:14:19;;;;;;;10.33;8.70;;;14.80;99.30;;;;;;5040493;28;20687;-78
2023/02/14 10:16:53;;;;;;;11.90;9.57;;;14.90;99.60;;;;;;5040553;28;20464;-78
2023/02/14 10:19:36;;;;;;;9.87;8.70;;;15.00;98.30;;;;;;5041603;28;20420;-79
2023/02/14 10:22:08;;;;;;;11.17;9.17;;;15.20;97.50;;;;;;5040488;28;20440;-77
2023/02/14 10:24:52;;;;;;;11.03;9.50;;;15.30;98.00;;;;;;5040402;28;20409;-79
2023/02/14 10:27:31;;;;;;;14.80;9.40;;;15.40;98.30;;;;;;5039107;28;20421;-79
2023/02/14 10:29:57;;;;;;;10.10;7.60;;;15.60;96.50;;;;;;5040624;28;20415;-76
2023/02/14 10:32:43;;;;;;;13.27;9.50;;;15.70;97.50;;;;;;5040872;28;20429;-77
2023/02/14 10:35:24;;;;;;;11.97;9.63;;;15.90;96.10;;;;;;5039007;28;20488;-77
2023/02/14 10:38:16;;;;;;;10.10;8.73;;;16.10;95.90;;;;;;5043300;28;20425;-79
2023/02/14 10:41:23;;;;;;;10.13;8.50;;;16.10;95.40;;;;;;5059239;28;20416;-78
2023/02/14 10:44:07;;;;;;;11.67;9.07;;;16.10;96.20;;;;;;5051039;28;20447;-78
2023/02/14 10:46:39;;;;;;;10.77;9.67;;;16.20;96.90;;;;;;5059201;28;20478;-76
2023/02/14 10:49:36;;;;;;;13.03;9.40;;;16.30;95.80;;;;;;5042085;28;20428;-77
2023/02/14 10:52:26;;;;;;;9.00;8.10;;;16.20;94.70;;;;;;5059491;28;20469;-79
2023/02/14 10:54:58;;;;;;;10.17;8.10;;;16.10;95.50;;;;;;5061224;28;20517;-77
2023/02/14 10:57:34;;;;;;;10.37;8.50;;;15.90;95.10;;;;;;5060847;28;20512;-77
2023/02/14 11:00:09;;;;;;;11.00;8.50;;;15.70;94.80;;;;;;5060460;28;20420;-78
2023/02/14 11:02:42;;;;;;;10.90;8.90;;;15.40;95.80;;;;;;5060472;28;20513;-77
2023/02/14 11:05:27;;;;;;;13.17;9.67;;;15.30;96.20;;;;;;5060228;28;20420;-79
2023/02/14 11:07:53;;;;;;;9.97;7.87;;;15.20;96.00;;;;;;5061743;28;20480;-78
2023/02/14 11:10:29;;;;;;;9.23;8.03;;;15.10;96.80;;;;;;5060235;28;20432;-79
2023/02/14 11:12:55;;;;;;;10.63;8.30;;;14.90;96.70;;;;;;5061565;28;20471;-78
2023/02/14 11:15:21;;;;;;;11.57;9.07;;;14.80;96.70;;;;;;5061860;28;20463;-78
2023/02/14 11:17:47;;;;;;;9.83;8.80;;;14.60;96.20;;;;;;5044294;28;20421;-77
2023/02/14 11:20:21;;;;;;;12.03;8.57;;;14.60;97.50;;;;;;5061672;28;20574;-78
2023/02/14 11:22:48;;;;;;;11.10;8.23;;;14.60;97.60;;;;;;5060314;28;20438;-78
2023/02/14 11:25:20;;;;;;;10.17;8.60;;;14.50;97.30;;;;;;5060432;28;20452;-78
2023/02/14 11:27:51;;;;;;;11.30;8.07;;;14.50;97.60;;;;;;5059622;28;20416;-79
2023/02/14 11:30:29;;;;;;;9.93;8.07;;;14.40;97.10;;;;;;5060867;28;20439;-77
2023/02/14 11:32:56;;;;;;;10.97;8.43;;;14.20;97.00;;;;;;5060336;28;20534;-77
2023/02/14 11:35:26;;;;;;;9.37;7.93;;;14.20;97.80;;;;;;5060498;28;20915;-78
2023/02/14 11:37:54;;;;;;;8.90;7.00;;;14.20;97.60;;;;;;5040481;28;20424;-78
2023/02/14 11:40:30;;;;;;;8.40;7.37;;;14.10;97.40;;;;;;5024308;28;20511;-79
2023/02/14 11:43:28;;;;;;;9.90;8.07;;;14.10;97.90;;;;;;5023572;28;20437;-79
2023/02/14 11:46:19;;;;;;;12.67;8.13;;;14.10;97.50;;;;;;5040944;28;20457;-77
2023/02/14 11:48:59;;;;;;;9.50;7.40;;;14.00;98.00;;;;;;5055957;28;20431;-79
2023/02/14 11:51:27;;;;;;;10.37;7.87;;;14.10;98.50;;;;;;5040198;28;20437;-78
2023/02/14 11:53:59;;;;;;;8.93;8.03;;;14.10;98.70;;;;;;5040668;28;20436;-79
2023/02/14 11:56:47;;;;;;;9.07;7.90;;;14.20;98.60;;;;;;5040934;28;20503;-78
2023/02/14 11:59:23;;;;;;;11.50;8.07;;;14.40;98.50;;;;;;5040859;28;20428;-78
2023/02/14 12:01:50;;;;;;;11.10;8.20;;;14.50;98.80;;;;;;5038794;28;20625;-78
2023/02/14 12:04:25;;;;;;;11.07;9.20;;;14.60;97.60;;;;;;5040901;28;20440;-78
2023/02/14 12:06:51;;;;;;;11.53;8.40;;;14.70;97.50;;;;;;5039381;28;20431;-78
2023/02/14 12:09:25;;;;;;;8.50;7.50;;;14.80;98.30;;;;;;5038898;28;20421;-77
2023/02/14 12:11:55;;;;;;;12.40;8.37;;;14.90;98.50;;;;;;5040071;28;20287;-78
2023/02/14 12:14:22;;;;;;;9.47;8.13;;;15.00;98.10;;;;;;5038587;28;20456;-77
2023/02/14 12:16:55;;;;;;;11.00;8.83;;;15.10;97.50;;;;;;5040171;28;20475;-78
2023/02/14 12:19:49;;;;;;;10.03;8.30;;;15.20;97.10;;;;;;5039418;28;20926;-78
2023/02/14 12:22:20;;;;;;;9.40;7.30;;;15.20;97.10;;;;;;5040314;28;20444;-79
2023/02/14 12:24:58;;;;;;;8.37;7.50;;;15.30;97.50;;;;;;5055262;28;20529;-79
2023/02/14 12:27:29;;;;;;;7.87;7.07;;;15.40;97.70;;;;;;5038671;28;20429;-78
2023/02/14 12:30:06;;;;;;;9.10;7.73;;;15.50;96.70;;;;;;5039542;28;20413;-77
2023/02/14 12:32:32;;;;;;;9.63;7.50;;;15.60;96.60;;;;;;5039336;28;20437;-77
2023/02/14 12:35:12;;;;;;;13.30;8.70;;;15.70;95.70;;;;;;5040071;28;20480;-78
2023/02/14 12:37:53;;;;;;;9.47;7.50;;;15.60;96.10;;;;;;5040366;28;20421;-79
2023/02/14 12:40:22;;;;;;;9.10;7.83;;;15.60;95.60;;;;;;5057695;28;20451;-78
2023/02/14 12:43:13;;;;;;;9.67;8.40;;;15.70;96.20;;;;;;5059091;28;20657;-78
2023/02/14 12:46:04;;;;;;;10.40;8.83;;;15.70;95.60;;;;;;5059692;28;20416;-78
2023/02/14 12:49:01;;;;;;;10.00;8.60;;;15.80;96.00;;;;;;5058055;28;20435;-79
2023/02/14 12:51:46;;;;;;;10.90;8.50;;;15.80;96.40;;;;;;5058978;28;20456;-78
2023/02/14 12:54:33;;;;;;;11.23;8.57;;;15.80;95.80;;;;;;5058739;28;20774;-78
2023/02/14 12:57:11;;;;;;;10.07;8.60;;;15.80;95.30;;;;;;5057856;28;20486;-78
2023/02/14 12:59:58;;;;;;;12.00;8.77;;;15.80;94.80;;;;;;5055424;28;20426;-78
2023/02/14 13:02:39;;;;;;;10.80;7.97;;;15.70;94.50;;;;;;5054337;28;20911;-79
2023/02/14 13:05:26;;;;;;;9.50;7.80;;;15.70;95.30;;;;;;5049116;28;20788;-79
2023/02/14 13:08:13;;;;;;;11.07;8.30;;;15.80;95.40;;;;;;5047602;28;20886;-79
2023/02/14 13:10:44;;;;;;;9.87;7.83;;;15.80;94.50;;;;;;5049408;28;20462;-80
2023/02/14 13:13:18;;;;;;;11.40;8.20;;;15.70;95.70;;;;;;5036083;28;20452;-78
2023/02/14 13:16:11;;;;;;;10.40;7.80;;;15.60;95.10;;;;;;5054608;28;20529;-80
2023/02/14 13:18:57;;;;;;;10.10;8.37;;;15.60;95.60;;;;;;5053794;28;20412;-80
2023/02/14 13:21:26;;;;;;;10.10;8.67;;;15.70;95.00;;;;;;5054595;28;20428;-78
2023/02/14 13:23:57;;;;;;;8.30;7.20;;;15.70;94.90;;;;;;5054280;28;20986;-80